»·PEaware :: N1365R L52-L88

N1365R :: L52-L88

FLIGHT INFORMATION

Flight Status: Arrived
Operator: Privately registered:
United States
More flights under this callsign
Pilot: John G. (20213)
Aircraft: ROBIN DR-400
(DR40)
More flights by this aircraft type
Origin: L52 Oceano Co
United States
Destination: L88 New Cuyama
United States
More flights between these airports :: More routes between these airports
Route:
File this flight plan on PilotEdge
Remarks: CAT 1
Altitude:
(Current/Filed)
3,500ft
Speed:
(Current/Filed)
122kts
Departed: 30-Sep-18 08:25 AM
Arrived: 30-Sep-18 08:55 AM
Distance/Time
Traveled:
47nm/0:30
Distance/Time
To Go:
Arrived

Flight Plot

Page will automatically refresh every two minutes.


Map Options




Map Legend


Flown Route
Filed Route
Departure Airport
Arrival Airport
Navaid (VOR, NDB)
Fix

Horizontal Profiles

Position Reports

Time Latitude Longitude Heading Altitude Ground
Speed
30-Sep-18 08:22 35.103275 -120.624319 33 17ft 0kts
30-Sep-18 08:23 35.102777 -120.623902 211 17ft 0kts
30-Sep-18 08:24 35.101022 -120.622313 122 17ft 19kts
30-Sep-18 08:25 35.099562 -120.619475 32 17ft 0kts
30-Sep-18 08:26 35.099787 -120.619380 357 17ft 12kts
30-Sep-18 08:27 35.109728 -120.637769 301 554ft 93kts
30-Sep-18 08:28 35.125539 -120.665675 325 1290ft 115kts
30-Sep-18 08:29 35.143427 -120.644431 87 1880ft 111kts
30-Sep-18 08:30 35.144388 -120.607191 87 2678ft 108kts
30-Sep-18 08:31 35.135837 -120.573711 113 3447ft 105kts
30-Sep-18 08:32 35.124833 -120.535802 107 3501ft 125kts
30-Sep-18 08:33 35.122921 -120.495214 81 3866ft 107kts
30-Sep-18 08:34 35.127814 -120.460777 78 4497ft 110kts
30-Sep-18 08:35 35.134294 -120.419947 78 4500ft 127kts
30-Sep-18 08:36 35.141140 -120.377259 78 4499ft 128kts
30-Sep-18 08:37 35.147779 -120.335825 78 4499ft 128kts
30-Sep-18 08:38 35.154502 -120.293779 78 4499ft 128kts
30-Sep-18 08:39 35.160870 -120.250813 94 4489ft 129kts
30-Sep-18 08:40 35.147277 -120.210644 114 4499ft 128kts
30-Sep-18 08:41 35.131846 -120.171017 115 4499ft 129kts
30-Sep-18 08:42 35.116400 -120.131653 115 4499ft 128kts
30-Sep-18 08:43 35.101507 -120.093754 115 4499ft 128kts
30-Sep-18 08:44 35.086148 -120.054717 115 4499ft 128kts
30-Sep-18 08:45 35.070616 -120.015285 115 4440ft 133kts
30-Sep-18 08:46 35.053541 -119.972020 115 3659ft 143kts
30-Sep-18 08:47 35.037442 -119.931249 115 3498ft 125kts
30-Sep-18 08:48 35.022447 -119.893309 115 3499ft 123kts
30-Sep-18 08:49 35.007568 -119.855715 115 3499ft 123kts
30-Sep-18 08:50 34.992299 -119.817199 115 3301ft 128kts
30-Sep-18 08:51 34.977178 -119.779082 115 3299ft 123kts
30-Sep-18 08:52 34.960944 -119.742396 119 3299ft 123kts
30-Sep-18 08:53 34.942415 -119.706014 121 3106ft 129kts
30-Sep-18 08:54 34.926148 -119.673777 119 2956ft 97kts
30-Sep-18 08:55 34.931493 -119.662109 278 2529ft 90kts
30-Sep-18 08:56 34.939275 -119.684030 293 2206ft 57kts
30-Sep-18 08:57 34.942787 -119.691044 58 2206ft 8kts
30-Sep-18 08:58 34.942996 -119.690958 210 2206ft 0kts
30-Sep-18 08:59 34.942996 -119.690958 210 2206ft 0kts
30-Sep-18 09:00 34.942996 -119.690958 210 2206ft 0kts
30-Sep-18 09:01 34.942996 -119.690958 210 2206ft 0kts
30-Sep-18 09:02 34.942996 -119.690958 210 2206ft 0kts
30-Sep-18 09:03 34.942996 -119.690958 210 2206ft 0kts
30-Sep-18 09:04 34.942996 -119.690958 210 2206ft 0kts
30-Sep-18 09:05 34.942996 -119.690958 210 2206ft 0kts
30-Sep-18 09:06 34.942996 -119.690958 210 2206ft 0kts
30-Sep-18 09:07 34.942996 -119.690958 210 2206ft 0kts
30-Sep-18 09:08 34.942996 -119.690958 210 2206ft 0kts
30-Sep-18 09:09 34.942996 -119.690958 210 2206ft 0kts
30-Sep-18 09:10 34.942996 -119.690958 210 2206ft 0kts
30-Sep-18 09:11 34.942996 -119.690958 210 2206ft 0kts

Navigation Log

Ident Type
Flight plan parsing failed, navigation log unavailable